Meteo Giornale » Osservazioni meteo Italia » Gioia Del Colle

ore: 10:55 - Osservazioni Meteo Gioia Del Colle
Lat. 40° 46' N Lon. 16° 56' E Alt. 345 metri s.l.m.

nuvoloso Europe/Rome

24 °C

Nuvoloso

Temp. 24 Ore

17 °C

25 °C

Nord

16.7 Km/h

Dew point 12 °C

Umidità 47 %

Visibilità  10 Km

Il sole sorge alle ore 05:18

Il sole tramonta alle ore 20:28

Data e Ora Cielo e Fenomeni T °C DP °C Um. % Pres. hPa Vis. km Vento km/h
Oggi h: 10:55 nuvoloso Nuvoloso 24 12 47 1012 10 N 16.7
Oggi h: 09:55 poco_nuvoloso Poco Nuvoloso 23 13 53 1012 10 N/NO 16.7
Oggi h: 08:55 sereno Sereno 23 13 53 1012 10 N/NO 14.8
Oggi h: 07:55 sereno Sereno 22 14 60 1012 10 O/NO 11.1
Oggi h: 06:55 sereno Sereno 19 19 100 1012 10 N/NO 11.1
Oggi h: 05:55 sereno Sereno 18 15 82 1012 10 N/NO 11.1
Oggi h: 04:55 sereno Sereno 18 14 77 1012 10 N/NO 11.1
Oggi h: 03:55 sereno Sereno 18 14 77 1013 10 O/NO 13
Oggi h: 02:55 sereno Sereno 17 14 82 1012 10 O/NO 11.1
Oggi h: 01:55 sereno Sereno 17 15 88 1012 10 O/NO 11.1
Oggi h: 00:55 sereno Sereno 17 15 88 1012 10 N 3.7
Ieri h: 23:55 sereno Sereno 18 17 93 1012 10 O/NO 7.4
Ieri h: 22:55 sereno Sereno 19 17 88 1012 10 N/NO 7.4
Ieri h: 21:55 sereno Sereno 20 18 88 1011 10 N/NO 7.4
Ieri h: 20:55 sereno Sereno 20 16 77 1012 10 N 14.8
Ieri h: 19:55 sereno Sereno 22 13 56 1011 10 N 14.8
Ieri h: 18:55 sereno Sereno 23 12 49 1011 10 N 18.5
Ieri h: 17:55 sereno Sereno 24 12 47 1011 10 N 18.5
Ieri h: 16:55 poco_nuvoloso Poco Nuvoloso 25 11 41 1011 10 N/NO 20.3
Ieri h: 15:55 poco_nuvoloso Poco Nuvoloso 25 12 44 1011 10 N 22.2